Terminal Aerodrome Forecast
Issued by NWS

Home | Current Version | Previous Version | Text Only | Print | Product List | Glossary On
Versions: 1 2 3 4 5 6 7 8 9 10 11 12 13 14 15 16 17 18 19 20 21 22 23 24 25 26 27 28 29 30 31 32 33
000
FTUS43 KLOT 281943 AAB
TAFMDW
TAF AMD
KMDW 281943Z 2820/2918 20007KT P6SM SCT040 BKN180
     FM290000 19005KT P6SM VCSH SCT050 SCT100 BKN150
     FM290400 18008KT P6SM VCTS BKN070CB BKN100 PROB30 2906/2910 3SM
      TSRA OVC050CB
     FM291100 26009KT P6SM VCSH SCT020 OVC040
     FM291300 29011G16KT P6SM SCT040 BKN140=

USA.gov is the U.S. government's official web portal to all federal, state and local government web resources and services.